Terminal Aerodrome Forecast
Issued by NWS

Home | Current Version | Previous Version | Text Only | Print | Product List | Glossary On
Versions: 1 2 3 4 5 6 7 8 9 10 11 12 13 14 15 16 17 18 19 20 21 22 23 24 25 26
000
FTUS41 KBOX 300241 AAB
TAFACK
TAF AMD
KACK 300241Z 3003/3024 06014KT P6SM OVC025
     FM300600 07019G25KT P6SM OVC025
     FM301100 07021G30KT P6SM VCSH OVC015
     FM301300 07021G32KT P6SM VCSH OVC020
     FM301500 07022G33KT P6SM VCSH OVC060
     FM301800 06022G32KT P6SM -SHRA OVC045
     FM302200 07021G31KT 6SM -SHRA BR OVC015=

USA.gov is the U.S. government's official web portal to all federal, state and local government web resources and services.